ENBL/FDE METAR and TAF weather

Enter ICAO airport designator
Station Type Date Time Source
ENBL METAR 2022/01/24 22:50 UTC NOAA

ENBL 242250Z 29005KT 9999 FEW012 SCT022 BKN040 02/M00 Q1024


Station Type Date Time Source
ENBL Decoded METAR 2022/01/24 22:50 UTC NOAA

Forde / Bringeland, Norway (ENBL) 61-27N 005-52E
Jan 24, 2022 - 05:50 PM EST / 2022.01.24 2250 UTC
Wind: from the WNW (290 degrees) at 6 MPH (5 KT):0
Visibility: greater than 7 mile(s):0
Sky conditions: mostly cloudy
Temperature: 35 F (2 C)
Windchill: 30 F (-1 C):1
Dew Point: 32 F (0 C)
Relative Humidity: 86%
Pressure (altimeter): 30.24 in. Hg (1024 hPa)
ob: ENBL 242250Z 29005KT 9999 FEW012 SCT022 BKN040 02/M00 Q1024
cycle: 23

Station Type Date Time Source
ENBL TAF UTC NOAA

Error!

Example: see airport list